Time,TemperatureF,DewpointF,PressureIn,WindDirection,WindDirectionDegrees,WindSpeedMPH,WindSpeedGustMPH,Humidity,HourlyPrecipIn,Conditions,Clouds,dailyrainin,SoftwareType,DateUTC
2013-02-04 10:00:00,10.2,5.8,29.66,North,360,0.0,44.0,82,0.00,,,0.00,Wunderground v.1.13,2013-02-04 19:00:00,
2013-02-04 10:10:00,10.4,6.0,29.67,North,360,0.0,44.0,82,0.00,,,0.00,Wunderground v.1.13,2013-02-04 19:10:00,
2013-02-04 10:15:00,10.4,6.0,29.67,North,360,0.0,44.0,82,0.00,,,0.00,Wunderground v.1.13,2013-02-04 19:15:00,
2013-02-04 10:20:00,10.5,6.4,29.67,North,360,0.0,44.0,83,0.00,,,0.00,Wunderground v.1.13,2013-02-04 19:20:00,
2013-02-04 10:25:00,10.5,6.4,29.67,North,360,0.0,44.0,83,0.00,,,0.00,Wunderground v.1.13,2013-02-04 19:25:00,
2013-02-04 10:35:00,10.5,6.4,29.67,SW,214,0.0,44.0,83,0.00,,,0.00,Wunderground v.1.13,2013-02-04 19:35:00,
2013-02-04 10:40:00,10.5,6.4,29.67,SW,214,0.0,44.0,83,0.00,,,0.00,Wunderground v.1.13,2013-02-04 19:40:00,
2013-02-04 10:45:00,10.5,6.4,29.67,SW,214,0.0,44.0,83,0.00,,,0.00,Wunderground v.1.13,2013-02-04 19:45:00,
2013-02-04 10:55:00,10.5,6.4,29.68,SW,214,0.0,44.0,83,0.00,,,0.00,Wunderground v.1.13,2013-02-04 19:55:00,
2013-02-04 11:00:00,10.7,6.6,29.68,SW,214,0.0,44.0,83,0.00,,,0.00,Wunderground v.1.13,2013-02-04 20:00:00,
2013-02-04 11:10:00,10.9,6.8,29.68,SW,214,0.0,44.0,83,0.00,,,0.00,Wunderground v.1.13,2013-02-04 20:10:00,
2013-02-04 11:15:00,11.1,6.9,29.68,SW,214,0.0,44.0,83,0.00,,,0.00,Wunderground v.1.13,2013-02-04 20:15:00,
2013-02-04 11:20:00,11.1,6.9,29.68,SW,214,0.0,44.0,83,0.00,,,0.00,Wunderground v.1.13,2013-02-04 20:20:00,
2013-02-04 11:25:00,11.2,7.0,29.68,SW,214,0.0,44.0,83,0.00,,,0.00,Wunderground v.1.13,2013-02-04 20:25:00,
2013-02-04 11:30:00,11.2,7.0,29.68,SW,214,0.0,44.0,83,0.00,,,0.00,Wunderground v.1.13,2013-02-04 20:30:00,
2013-02-04 11:40:00,11.6,7.4,29.69,SW,214,0.0,44.0,83,0.00,,,0.00,Wunderground v.1.13,2013-02-04 20:40:00,
2013-02-04 11:45:00,11.7,7.5,29.69,SW,214,0.0,44.0,83,0.00,,,0.00,Wunderground v.1.13,2013-02-04 20:45:00,
2013-02-04 11:50:00,12.1,7.9,29.69,SW,214,0.0,44.0,83,0.00,,,0.00,Wunderground v.1.13,2013-02-04 20:50:00,
2013-02-04 12:00:00,12.8,8.6,29.69,SW,214,0.0,44.0,83,0.00,,,0.00,Wunderground v.1.13,2013-02-04 21:00:00,
2013-02-04 12:10:00,13.1,8.6,29.69,SW,214,0.0,44.0,82,0.00,,,0.00,Wunderground v.1.13,2013-02-04 21:10:00,
2013-02-04 12:15:00,13.1,8.6,29.69,SW,214,0.0,44.0,82,0.00,,,0.00,Wunderground v.1.13,2013-02-04 21:15:00,
2013-02-04 12:25:00,13.3,8.8,29.69,SW,214,0.0,44.0,82,0.00,,,0.00,Wunderground v.1.13,2013-02-04 21:25:00,
2013-02-04 12:30:00,13.1,8.6,29.69,SW,214,0.0,44.0,82,0.00,,,0.00,Wunderground v.1.13,2013-02-04 21:30:00,
2013-02-04 12:40:00,12.8,8.3,29.69,SW,214,0.0,44.0,82,0.00,,,0.00,Wunderground v.1.13,2013-02-04 21:40:00,
2013-02-04 12:45:00,12.8,8.6,29.69,SW,214,0.0,44.0,83,0.00,,,0.00,Wunderground v.1.13,2013-02-04 21:45:00,
2013-02-04 12:50:00,12.8,8.6,29.69,SW,214,0.0,44.0,83,0.00,,,0.00,Wunderground v.1.13,2013-02-04 21:50:00,
2013-02-04 13:00:00,12.9,8.7,29.69,SW,214,0.0,44.0,83,0.00,,,0.00,Wunderground v.1.13,2013-02-04 22:00:00,
2013-02-04 13:10:00,13.1,8.9,29.69,SW,214,0.0,44.0,83,0.00,,,0.00,Wunderground v.1.13,2013-02-04 22:10:00,
2013-02-04 13:15:00,13.3,9.1,29.69,SW,214,0.0,44.0,83,0.00,,,0.00,Wunderground v.1.13,2013-02-04 22:15:00,
2013-02-04 13:25:00,13.6,9.4,29.69,SW,214,0.0,44.0,83,0.00,,,0.00,Wunderground v.1.13,2013-02-04 22:25:00,
2013-02-04 13:30:00,13.8,9.6,29.69,SW,214,0.0,44.0,83,0.00,,,0.00,Wunderground v.1.13,2013-02-04 22:30:00,
2013-02-04 13:35:00,13.8,9.6,29.69,SW,214,0.0,44.0,83,0.00,,,0.00,Wunderground v.1.13,2013-02-04 22:35:00,
2013-02-04 13:40:00,13.8,9.6,29.69,SW,214,0.0,44.0,83,0.00,,,0.00,Wunderground v.1.13,2013-02-04 22:40:00,
2013-02-04 13:50:00,14.0,9.8,29.70,SW,214,0.0,44.0,83,0.00,,,0.00,Wunderground v.1.13,2013-02-04 22:50:00,
2013-02-04 14:00:00,14.1,9.9,29.70,SW,214,0.0,44.0,83,0.00,,,0.00,Wunderground v.1.13,2013-02-04 23:00:00,
2013-02-04 14:10:00,14.6,10.4,29.70,SW,214,0.0,44.0,83,0.00,,,0.00,Wunderground v.1.13,2013-02-04 23:10:00,
2013-02-04 14:15:00,14.6,10.4,29.70,SW,214,0.0,44.0,83,0.00,,,0.00,Wunderground v.1.13,2013-02-04 23:15:00,
2013-02-04 14:20:00,14.6,10.4,29.70,SW,214,0.0,44.0,83,0.00,,,0.00,Wunderground v.1.13,2013-02-04 23:20:00,
2013-02-04 14:30:00,14.3,10.1,29.70,South,189,0.0,44.0,83,0.00,,,0.00,Wunderground v.1.13,2013-02-04 23:30:00,
2013-02-04 14:35:00,14.3,10.1,29.70,South,189,0.0,44.0,83,0.00,,,0.00,Wunderground v.1.13,2013-02-04 23:35:00,
2013-02-04 14:45:00,14.0,9.8,29.70,South,189,0.0,44.0,83,0.00,,,0.00,Wunderground v.1.13,2013-02-04 23:45:00,
2013-02-04 14:50:00,13.8,9.6,29.70,South,189,0.0,44.0,83,0.00,,,0.00,Wunderground v.1.13,2013-02-04 23:50:00,
2013-02-04 14:55:00,13.8,9.6,29.70,South,189,0.0,44.0,83,0.00,,,0.00,Wunderground v.1.13,2013-02-04 23:55:00,
2013-02-04 15:00:00,13.8,9.6,29.70,South,189,0.0,44.0,83,0.00,,,0.00,Wunderground v.1.13,2013-02-05 00:00:00,
2013-02-04 15:10:00,13.8,9.9,29.70,SSE,157,0.0,44.0,84,0.00,,,0.00,Wunderground v.1.13,2013-02-05 00:10:00,
2013-02-04 15:15:00,13.8,9.9,29.70,SSE,157,0.0,44.0,84,0.00,,,0.00,Wunderground v.1.13,2013-02-05 00:15:00,
2013-02-04 15:20:00,13.8,9.9,29.71,SSE,157,0.0,44.0,84,0.00,,,0.00,Wunderground v.1.13,2013-02-05 00:20:00,
2013-02-04 15:25:00,13.8,9.9,29.71,SSE,157,0.0,44.0,84,0.00,,,0.00,Wunderground v.1.13,2013-02-05 00:25:00,
2013-02-04 15:35:00,14.0,10.1,29.71,SSE,157,0.0,44.0,84,0.00,,,0.00,Wunderground v.1.13,2013-02-05 00:35:00,
2013-02-04 15:40:00,14.0,9.8,29.71,SSE,159,0.0,44.0,83,0.00,,,0.00,Wunderground v.1.13,2013-02-05 00:40:00,
2013-02-04 15:50:00,13.6,9.4,29.70,South,177,0.0,44.0,83,0.00,,,0.00,Wunderground v.1.13,2013-02-05 00:50:00,
2013-02-04 15:55:00,13.6,9.7,29.70,South,177,0.0,44.0,84,0.00,,,0.00,Wunderground v.1.13,2013-02-05 00:55:00,
2013-02-04 16:10:00,13.6,9.7,29.70,South,177,0.0,44.0,84,0.00,,,0.00,Wunderground v.1.13,2013-02-05 01:10:00,
2013-02-04 16:20:00,13.6,9.7,29.70,South,177,0.0,44.0,84,0.00,,,0.00,Wunderground v.1.13,2013-02-05 01:20:00,
2013-02-04 16:25:00,13.5,9.6,29.70,South,177,0.0,44.0,84,0.00,,,0.00,Wunderground v.1.13,2013-02-05 01:25:00,
2013-02-04 16:30:00,13.5,9.6,29.70,South,177,0.0,44.0,84,0.00,,,0.00,Wunderground v.1.13,2013-02-05 01:30:00,
2013-02-04 16:40:00,13.3,9.4,29.70,South,177,0.0,44.0,84,0.00,,,0.00,Wunderground v.1.13,2013-02-05 01:40:00,
2013-02-04 16:45:00,13.1,9.2,29.70,South,177,0.0,44.0,84,0.00,,,0.00,Wunderground v.1.13,2013-02-05 01:45:00,
2013-02-04 16:50:00,13.1,9.2,29.70,South,177,0.0,44.0,84,0.00,,,0.00,Wunderground v.1.13,2013-02-05 01:50:00,
2013-02-04 16:55:00,12.9,9.0,29.70,South,177,0.0,44.0,84,0.00,,,0.00,Wunderground v.1.13,2013-02-05 01:55:00,
2013-02-04 17:10:00,12.4,8.5,29.70,South,177,0.0,44.0,84,0.00,,,0.00,Wunderground v.1.13,2013-02-05 02:10:00,
2013-02-04 17:15:00,12.4,8.5,29.70,South,177,0.0,44.0,84,0.00,,,0.00,Wunderground v.1.13,2013-02-05 02:15:00,
2013-02-04 17:25:00,12.3,8.4,29.70,South,177,0.0,44.0,84,0.00,,,0.00,Wunderground v.1.13,2013-02-05 02:25:00,
2013-02-04 17:30:00,12.3,8.4,29.70,South,177,0.0,44.0,84,0.00,,,0.00,Wunderground v.1.13,2013-02-05 02:30:00,
2013-02-04 17:35:00,12.3,8.7,29.69,South,177,0.0,44.0,85,0.00,,,0.00,Wunderground v.1.13,2013-02-05 02:35:00,
2013-02-04 17:45:00,12.3,8.7,29.69,South,177,0.0,44.0,85,0.00,,,0.00,Wunderground v.1.13,2013-02-05 02:45:00,
2013-02-04 17:50:00,12.3,8.7,29.69,South,177,0.0,44.0,85,0.00,,,0.00,Wunderground v.1.13,2013-02-05 02:50:00,
2013-02-04 17:55:00,12.1,8.5,29.69,South,177,0.0,44.0,85,0.00,,,0.00,Wunderground v.1.13,2013-02-05 02:55:00,
2013-02-04 18:10:00,11.9,8.3,29.69,South,177,0.0,44.0,85,0.00,,,0.00,Wunderground v.1.13,2013-02-05 03:10:00,
2013-02-04 18:15:00,11.9,8.3,29.69,South,177,0.0,44.0,85,0.00,,,0.00,Wunderground v.1.13,2013-02-05 03:15:00,
2013-02-04 18:20:00,11.7,8.1,29.69,South,177,0.0,44.0,85,0.00,,,0.00,Wunderground v.1.13,2013-02-05 03:20:00,
2013-02-04 18:30:00,11.4,7.5,29.69,South,177,0.0,44.0,84,0.00,,,0.00,Wunderground v.1.13,2013-02-05 03:30:00,
2013-02-04 18:35:00,11.2,7.3,29.70,South,177,0.0,44.0,84,0.00,,,0.00,Wunderground v.1.13,2013-02-05 03:35:00,
2013-02-04 18:40:00,11.1,7.2,29.70,South,177,0.0,44.0,84,0.00,,,0.00,Wunderground v.1.13,2013-02-05 03:40:00,
2013-02-04 18:50:00,10.9,7.0,29.70,South,177,0.0,44.0,84,0.00,,,0.00,Wunderground v.1.13,2013-02-05 03:50:00,
2013-02-04 18:55:00,10.9,7.3,29.70,South,177,0.0,44.0,85,0.00,,,0.00,Wunderground v.1.13,2013-02-05 03:55:00,
2013-02-04 19:00:00,10.7,6.8,29.70,South,177,0.0,44.0,84,0.00,,,0.00,Wunderground v.1.13,2013-02-05 04:00:00,
2013-02-04 19:10:00,10.5,6.9,29.69,South,177,0.0,44.0,85,0.00,,,0.00,Wunderground v.1.13,2013-02-05 04:10:00,
2013-02-04 19:15:00,10.5,6.9,29.69,South,177,0.0,44.0,85,0.00,,,0.00,Wunderground v.1.13,2013-02-05 04:15:00,
2013-02-04 19:20:00,10.7,7.1,29.70,South,177,0.0,44.0,85,0.00,,,0.00,Wunderground v.1.13,2013-02-05 04:20:00,
2013-02-04 19:30:00,10.9,7.3,29.70,South,177,0.0,44.0,85,0.00,,,0.00,Wunderground v.1.13,2013-02-05 04:30:00,
2013-02-04 19:35:00,10.7,6.8,29.70,South,177,0.0,44.0,84,0.00,,,0.00,Wunderground v.1.13,2013-02-05 04:35:00,
2013-02-04 19:40:00,10.5,6.6,29.70,South,177,0.0,44.0,84,0.00,,,0.00,Wunderground v.1.13,2013-02-05 04:40:00,
2013-02-04 19:45:00,10.7,7.1,29.70,South,177,0.0,44.0,85,0.00,,,0.00,Wunderground v.1.13,2013-02-05 04:45:00,
2013-02-04 19:55:00,10.7,6.8,29.69,South,177,0.0,44.0,84,0.00,,,0.00,Wunderground v.1.13,2013-02-05 04:55:00,
2013-02-04 20:00:00,10.4,6.3,29.69,South,177,0.0,44.0,83,0.00,,,0.00,Wunderground v.1.13,2013-02-05 05:00:00,
2013-02-04 20:10:00,9.5,5.4,29.69,South,177,0.0,44.0,83,0.00,,,0.00,Wunderground v.1.13,2013-02-05 05:10:00,
2013-02-04 20:15:00,9.3,5.2,29.69,NNW,329,0.0,44.0,83,0.00,,,0.00,Wunderground v.1.13,2013-02-05 05:15:00,
2013-02-04 20:20:00,9.2,5.1,29.70,NNW,329,0.0,44.0,83,0.00,,,0.00,Wunderground v.1.13,2013-02-05 05:20:00,
2013-02-04 20:30:00,9.3,5.4,29.70,NNW,329,0.0,44.0,84,0.00,,,0.00,Wunderground v.1.13,2013-02-05 05:30:00,
2013-02-04 20:35:00,9.3,5.4,29.69,NNW,329,0.0,44.0,84,0.00,,,0.00,Wunderground v.1.13,2013-02-05 05:35:00,
2013-02-04 20:40:00,9.3,5.2,29.69,NNW,329,0.0,44.0,83,0.00,,,0.00,Wunderground v.1.13,2013-02-05 05:40:00,
2013-02-04 20:45:00,9.2,5.1,29.69,NNW,329,0.0,44.0,83,0.00,,,0.00,Wunderground v.1.13,2013-02-05 05:45:00,
2013-02-04 20:50:00,9.3,5.4,29.70,NNW,329,0.0,44.0,84,0.00,,,0.00,Wunderground v.1.13,2013-02-05 05:50:00,
2013-02-04 20:55:00,9.5,5.6,29.70,NNW,329,0.0,44.0,84,0.00,,,0.00,Wunderground v.1.13,2013-02-05 05:55:00,
2013-02-04 21:10:00,9.9,6.0,29.69,NNW,329,0.0,44.0,84,0.00,,,0.00,Wunderground v.1.13,2013-02-05 06:10:00,
2013-02-04 21:15:00,10.2,6.3,29.69,NNW,329,0.0,44.0,84,0.00,,,0.00,Wunderground v.1.13,2013-02-05 06:15:00,
2013-02-04 21:20:00,10.4,6.5,29.69,NNW,329,0.0,44.0,84,0.00,,,0.00,Wunderground v.1.13,2013-02-05 06:20:00,
2013-02-04 21:30:00,10.9,7.3,29.69,NNW,329,0.0,44.0,85,0.00,,,0.00,Wunderground v.1.13,2013-02-05 06:30:00,
2013-02-04 21:35:00,11.1,7.5,29.69,NNW,340,0.0,44.0,85,0.00,,,0.00,Wunderground v.1.13,2013-02-05 06:35:00,
2013-02-04 21:45:00,11.6,7.7,29.69,NNW,340,0.0,44.0,84,0.00,,,0.00,Wunderground v.1.13,2013-02-05 06:45:00,
2013-02-04 21:55:00,11.6,7.7,29.69,NNW,340,0.0,44.0,84,0.00,,,0.00,Wunderground v.1.13,2013-02-05 06:55:00,
2013-02-04 22:00:00,11.9,8.3,29.69,NNW,340,0.0,44.0,85,0.00,,,0.00,Wunderground v.1.13,2013-02-05 07:00:00,
2013-02-04 22:10:00,12.1,8.2,29.69,NNW,340,0.0,44.0,84,0.00,,,0.00,Wunderground v.1.13,2013-02-05 07:10:00,
2013-02-04 22:15:00,11.9,8.0,29.69,NNW,340,0.0,44.0,84,0.00,,,0.00,Wunderground v.1.13,2013-02-05 07:15:00,
2013-02-04 22:20:00,12.1,8.5,29.69,NNW,340,0.0,44.0,85,0.00,,,0.00,Wunderground v.1.13,2013-02-05 07:20:00,